sensor_id;sensor_type;location;lat;lon;timestamp;temperature;humidity
8408;DHT22;4241;48.452;9.216;2023-09-19T00:00:21;16.30;99.90
8408;DHT22;4241;48.452;9.216;2023-09-19T00:02:55;16.10;99.90
8408;DHT22;4241;48.452;9.216;2023-09-19T00:05:24;16.20;99.90
8408;DHT22;4241;48.452;9.216;2023-09-19T00:07:53;16.30;99.90
8408;DHT22;4241;48.452;9.216;2023-09-19T00:10:20;16.30;99.90
8408;DHT22;4241;48.452;9.216;2023-09-19T00:12:50;16.30;99.90
8408;DHT22;4241;48.452;9.216;2023-09-19T00:15:18;16.30;99.90
8408;DHT22;4241;48.452;9.216;2023-09-19T00:17:47;16.30;99.90
8408;DHT22;4241;48.452;9.216;2023-09-19T00:20:14;16.40;99.90
8408;DHT22;4241;48.452;9.216;2023-09-19T00:22:43;16.30;99.90
8408;DHT22;4241;48.452;9.216;2023-09-19T00:25:10;16.30;99.90
8408;DHT22;4241;48.452;9.216;2023-09-19T00:27:38;17.60;99.90
8408;DHT22;4241;48.452;9.216;2023-09-19T00:30:08;16.40;99.90
8408;DHT22;4241;48.452;9.216;2023-09-19T00:32:40;16.40;99.90
8408;DHT22;4241;48.452;9.216;2023-09-19T00:35:08;16.40;99.90
8408;DHT22;4241;48.452;9.216;2023-09-19T00:37:36;16.40;99.90
8408;DHT22;4241;48.452;9.216;2023-09-19T00:40:03;16.40;99.90
8408;DHT22;4241;48.452;9.216;2023-09-19T00:42:31;16.50;99.90
8408;DHT22;4241;48.452;9.216;2023-09-19T00:44:59;16.40;99.90
8408;DHT22;4241;48.452;9.216;2023-09-19T00:47:29;16.40;99.90
8408;DHT22;4241;48.452;9.216;2023-09-19T00:49:56;16.50;99.90
8408;DHT22;4241;48.452;9.216;2023-09-19T00:52:25;16.40;99.90
8408;DHT22;4241;48.452;9.216;2023-09-19T00:54:53;16.40;99.90
8408;DHT22;4241;48.452;9.216;2023-09-19T00:57:22;16.50;99.90
8408;DHT22;4241;48.452;9.216;2023-09-19T00:59:51;16.50;99.90
8408;DHT22;4241;48.452;9.216;2023-09-19T01:02:20;16.50;99.90
8408;DHT22;4241;48.452;9.216;2023-09-19T01:04:47;16.50;99.90
8408;DHT22;4241;48.452;9.216;2023-09-19T01:07:15;16.50;99.90
8408;DHT22;4241;48.452;9.216;2023-09-19T01:09:43;16.50;99.90
8408;DHT22;4241;48.452;9.216;2023-09-19T01:12:13;16.30;99.90
8408;DHT22;4241;48.452;9.216;2023-09-19T01:14:49;16.50;99.90
8408;DHT22;4241;48.452;9.216;2023-09-19T01:17:27;16.50;99.90
8408;DHT22;4241;48.452;9.216;2023-09-19T01:20:17;16.50;99.90
8408;DHT22;4241;48.452;9.216;2023-09-19T01:22:55;16.60;99.90
8408;DHT22;4241;48.452;9.216;2023-09-19T01:26:07;14.90;99.90
8408;DHT22;4241;48.452;9.216;2023-09-19T01:28:46;16.60;99.90
8408;DHT22;4241;48.452;9.216;2023-09-19T01:31:21;16.60;99.90
8408;DHT22;4241;48.452;9.216;2023-09-19T01:33:58;16.60;99.90
8408;DHT22;4241;48.452;9.216;2023-09-19T01:36:30;16.60;99.90
8408;DHT22;4241;48.452;9.216;2023-09-19T01:39:00;16.50;99.90
8408;DHT22;4241;48.452;9.216;2023-09-19T01:41:55;16.60;99.90
8408;DHT22;4241;48.452;9.216;2023-09-19T01:44:29;16.60;99.90
8408;DHT22;4241;48.452;9.216;2023-09-19T01:47:03;16.60;99.90
8408;DHT22;4241;48.452;9.216;2023-09-19T01:49:37;16.70;99.90
8408;DHT22;4241;48.452;9.216;2023-09-19T01:52:12;16.60;99.90
8408;DHT22;4241;48.452;9.216;2023-09-19T01:54:46;16.60;99.90
8408;DHT22;4241;48.452;9.216;2023-09-19T01:57:17;16.60;99.90
8408;DHT22;4241;48.452;9.216;2023-09-19T01:59:50;16.70;99.90
8408;DHT22;4241;48.452;9.216;2023-09-19T02:02:20;16.70;99.90
8408;DHT22;4241;48.452;9.216;2023-09-19T02:04:48;16.60;99.90
8408;DHT22;4241;48.452;9.216;2023-09-19T02:07:16;16.70;99.90
8408;DHT22;4241;48.452;9.216;2023-09-19T02:09:43;16.70;99.90
8408;DHT22;4241;48.452;9.216;2023-09-19T02:12:10;16.70;99.90
8408;DHT22;4241;48.452;9.216;2023-09-19T02:14:36;16.60;99.90
8408;DHT22;4241;48.452;9.216;2023-09-19T02:17:03;16.70;99.90
8408;DHT22;4241;48.452;9.216;2023-09-19T02:19:35;16.70;99.90
8408;DHT22;4241;48.452;9.216;2023-09-19T02:22:04;16.70;99.90
8408;DHT22;4241;48.452;9.216;2023-09-19T02:24:33;16.70;99.90
8408;DHT22;4241;48.452;9.216;2023-09-19T02:27:00;16.50;99.90
8408;DHT22;4241;48.452;9.216;2023-09-19T02:29:29;16.60;99.90
8408;DHT22;4241;48.452;9.216;2023-09-19T02:31:56;16.60;99.90
8408;DHT22;4241;48.452;9.216;2023-09-19T02:34:24;16.60;99.90
8408;DHT22;4241;48.452;9.216;2023-09-19T02:36:52;16.60;99.90
8408;DHT22;4241;48.452;9.216;2023-09-19T02:39:20;16.60;99.90
8408;DHT22;4241;48.452;9.216;2023-09-19T02:41:47;16.60;99.90
8408;DHT22;4241;48.452;9.216;2023-09-19T02:44:15;16.60;99.90
8408;DHT22;4241;48.452;9.216;2023-09-19T02:46:42;16.50;99.90
8408;DHT22;4241;48.452;9.216;2023-09-19T02:49:09;16.60;99.90
8408;DHT22;4241;48.452;9.216;2023-09-19T02:51:36;16.50;99.90
8408;DHT22;4241;48.452;9.216;2023-09-19T02:54:05;16.50;99.90
8408;DHT22;4241;48.452;9.216;2023-09-19T02:56:33;16.50;99.90
8408;DHT22;4241;48.452;9.216;2023-09-19T02:59:01;16.40;99.90
8408;DHT22;4241;48.452;9.216;2023-09-19T03:01:28;16.40;99.90
8408;DHT22;4241;48.452;9.216;2023-09-19T03:03:55;16.50;99.90
8408;DHT22;4241;48.452;9.216;2023-09-19T03:06:22;16.50;99.90
8408;DHT22;4241;48.452;9.216;2023-09-19T03:08:49;16.50;99.90
8408;DHT22;4241;48.452;9.216;2023-09-19T03:11:18;16.50;99.90
8408;DHT22;4241;48.452;9.216;2023-09-19T03:13:51;16.60;99.90
8408;DHT22;4241;48.452;9.216;2023-09-19T03:16:18;16.60;99.90
8408;DHT22;4241;48.452;9.216;2023-09-19T03:18:47;16.80;99.90
8408;DHT22;4241;48.452;9.216;2023-09-19T03:21:14;16.60;99.90
8408;DHT22;4241;48.452;9.216;2023-09-19T03:23:41;16.80;99.90
8408;DHT22;4241;48.452;9.216;2023-09-19T03:26:09;16.70;99.90
8408;DHT22;4241;48.452;9.216;2023-09-19T03:28:37;16.80;99.90
8408;DHT22;4241;48.452;9.216;2023-09-19T03:31:05;16.80;99.90
8408;DHT22;4241;48.452;9.216;2023-09-19T03:33:32;16.90;99.90
8408;DHT22;4241;48.452;9.216;2023-09-19T03:36:00;16.80;99.90
8408;DHT22;4241;48.452;9.216;2023-09-19T03:38:30;16.80;99.90
8408;DHT22;4241;48.452;9.216;2023-09-19T03:40:58;16.70;99.90
8408;DHT22;4241;48.452;9.216;2023-09-19T03:43:25;16.70;99.90
8408;DHT22;4241;48.452;9.216;2023-09-19T03:45:53;16.80;99.90
8408;DHT22;4241;48.452;9.216;2023-09-19T03:48:20;16.80;99.90
8408;DHT22;4241;48.452;9.216;2023-09-19T03:50:48;16.80;99.90
8408;DHT22;4241;48.452;9.216;2023-09-19T03:53:15;16.80;99.90
8408;DHT22;4241;48.452;9.216;2023-09-19T03:55:44;16.80;99.90
8408;DHT22;4241;48.452;9.216;2023-09-19T03:58:11;16.80;99.90
8408;DHT22;4241;48.452;9.216;2023-09-19T04:00:38;16.90;99.90
8408;DHT22;4241;48.452;9.216;2023-09-19T04:03:06;16.90;99.90
8408;DHT22;4241;48.452;9.216;2023-09-19T04:05:33;16.80;99.90
8408;DHT22;4241;48.452;9.216;2023-09-19T04:08:01;16.80;99.90
8408;DHT22;4241;48.452;9.216;2023-09-19T04:10:27;16.80;99.90
8408;DHT22;4241;48.452;9.216;2023-09-19T04:12:55;16.80;99.90
8408;DHT22;4241;48.452;9.216;2023-09-19T04:15:23;16.90;99.90
8408;DHT22;4241;48.452;9.216;2023-09-19T04:17:50;16.70;99.90
8408;DHT22;4241;48.452;9.216;2023-09-19T04:20:17;16.70;99.90
8408;DHT22;4241;48.452;9.216;2023-09-19T04:22:45;16.80;99.90
8408;DHT22;4241;48.452;9.216;2023-09-19T04:25:12;16.70;99.90
8408;DHT22;4241;48.452;9.216;2023-09-19T04:27:40;16.60;99.90
8408;DHT22;4241;48.452;9.216;2023-09-19T04:30:08;16.50;99.90
8408;DHT22;4241;48.452;9.216;2023-09-19T04:32:37;16.50;99.90
8408;DHT22;4241;48.452;9.216;2023-09-19T04:35:06;16.40;99.90
8408;DHT22;4241;48.452;9.216;2023-09-19T04:37:37;16.40;99.90
8408;DHT22;4241;48.452;9.216;2023-09-19T04:40:06;16.40;99.90
8408;DHT22;4241;48.452;9.216;2023-09-19T04:42:38;16.30;99.90
8408;DHT22;4241;48.452;9.216;2023-09-19T04:45:05;16.30;99.90
8408;DHT22;4241;48.452;9.216;2023-09-19T04:47:33;16.10;99.90
8408;DHT22;4241;48.452;9.216;2023-09-19T04:49:59;16.10;99.90
8408;DHT22;4241;48.452;9.216;2023-09-19T04:52:26;16.20;99.90
8408;DHT22;4241;48.452;9.216;2023-09-19T04:54:54;16.20;99.90
8408;DHT22;4241;48.452;9.216;2023-09-19T04:57:21;16.20;99.90
8408;DHT22;4241;48.452;9.216;2023-09-19T04:59:48;16.10;99.90
8408;DHT22;4241;48.452;9.216;2023-09-19T05:02:15;16.10;99.90
8408;DHT22;4241;48.452;9.216;2023-09-19T05:04:42;16.10;99.90
8408;DHT22;4241;48.452;9.216;2023-09-19T05:07:09;15.90;99.90
8408;DHT22;4241;48.452;9.216;2023-09-19T05:09:36;15.90;99.90
8408;DHT22;4241;48.452;9.216;2023-09-19T05:12:05;16.00;99.90
8408;DHT22;4241;48.452;9.216;2023-09-19T05:14:32;16.00;99.90
8408;DHT22;4241;48.452;9.216;2023-09-19T05:16:58;16.00;99.90
8408;DHT22;4241;48.452;9.216;2023-09-19T05:19:25;16.00;99.90
8408;DHT22;4241;48.452;9.216;2023-09-19T05:24:20;16.20;99.90
8408;DHT22;4241;48.452;9.216;2023-09-19T05:26:54;16.10;99.90
8408;DHT22;4241;48.452;9.216;2023-09-19T05:29:23;16.30;99.90
8408;DHT22;4241;48.452;9.216;2023-09-19T05:31:50;16.30;99.90
8408;DHT22;4241;48.452;9.216;2023-09-19T05:34:19;16.20;99.90
8408;DHT22;4241;48.452;9.216;2023-09-19T05:36:46;16.30;99.90
8408;DHT22;4241;48.452;9.216;2023-09-19T05:39:14;16.20;99.90
8408;DHT22;4241;48.452;9.216;2023-09-19T05:41:41;16.30;99.90
8408;DHT22;4241;48.452;9.216;2023-09-19T05:44:08;16.40;99.90
8408;DHT22;4241;48.452;9.216;2023-09-19T05:46:36;16.40;99.90
8408;DHT22;4241;48.452;9.216;2023-09-19T05:49:03;16.50;99.90
8408;DHT22;4241;48.452;9.216;2023-09-19T05:51:29;16.50;99.90
8408;DHT22;4241;48.452;9.216;2023-09-19T05:53:56;16.50;99.90
8408;DHT22;4241;48.452;9.216;2023-09-19T05:56:23;16.60;99.90
8408;DHT22;4241;48.452;9.216;2023-09-19T05:58:50;16.50;99.90
8408;DHT22;4241;48.452;9.216;2023-09-19T06:01:17;16.60;99.90
8408;DHT22;4241;48.452;9.216;2023-09-19T06:03:45;16.60;99.90
8408;DHT22;4241;48.452;9.216;2023-09-19T06:06:13;16.70;99.90
8408;DHT22;4241;48.452;9.216;2023-09-19T06:08:39;16.70;99.90
8408;DHT22;4241;48.452;9.216;2023-09-19T06:11:09;16.80;99.90
8408;DHT22;4241;48.452;9.216;2023-09-19T06:13:37;16.70;99.90
8408;DHT22;4241;48.452;9.216;2023-09-19T06:16:04;16.80;99.90
8408;DHT22;4241;48.452;9.216;2023-09-19T06:21:01;16.70;99.90
8408;DHT22;4241;48.452;9.216;2023-09-19T06:23:31;16.60;99.90
8408;DHT22;4241;48.452;9.216;2023-09-19T06:25:58;16.70;99.90
8408;DHT22;4241;48.452;9.216;2023-09-19T06:28:24;16.60;99.90
8408;DHT22;4241;48.452;9.216;2023-09-19T06:30:53;16.50;99.90
8408;DHT22;4241;48.452;9.216;2023-09-19T06:33:20;16.60;99.90
8408;DHT22;4241;48.452;9.216;2023-09-19T06:35:48;16.40;99.90
8408;DHT22;4241;48.452;9.216;2023-09-19T06:38:19;16.50;99.90
8408;DHT22;4241;48.452;9.216;2023-09-19T06:40:46;16.40;99.90
8408;DHT22;4241;48.452;9.216;2023-09-19T06:43:13;16.40;99.90
8408;DHT22;4241;48.452;9.216;2023-09-19T06:45:40;16.40;99.90
8408;DHT22;4241;48.452;9.216;2023-09-19T06:48:08;16.60;99.90
8408;DHT22;4241;48.452;9.216;2023-09-19T06:50:35;16.50;99.90
8408;DHT22;4241;48.452;9.216;2023-09-19T06:53:04;16.50;99.90
8408;DHT22;4241;48.452;9.216;2023-09-19T06:55:32;16.50;99.90
8408;DHT22;4241;48.452;9.216;2023-09-19T06:57:59;16.50;99.90
8408;DHT22;4241;48.452;9.216;2023-09-19T07:00:26;16.60;99.90
8408;DHT22;4241;48.452;9.216;2023-09-19T07:02:57;16.60;99.90
8408;DHT22;4241;48.452;9.216;2023-09-19T07:05:26;16.70;99.90
8408;DHT22;4241;48.452;9.216;2023-09-19T07:07:54;16.70;99.90
8408;DHT22;4241;48.452;9.216;2023-09-19T07:10:22;16.60;99.90
8408;DHT22;4241;48.452;9.216;2023-09-19T07:12:56;16.70;99.90
8408;DHT22;4241;48.452;9.216;2023-09-19T07:15:24;16.60;99.90
8408;DHT22;4241;48.452;9.216;2023-09-19T07:17:51;16.70;99.90
8408;DHT22;4241;48.452;9.216;2023-09-19T07:20:19;16.70;99.90
8408;DHT22;4241;48.452;9.216;2023-09-19T07:22:46;16.80;99.90
8408;DHT22;4241;48.452;9.216;2023-09-19T07:25:13;16.90;99.90
8408;DHT22;4241;48.452;9.216;2023-09-19T07:27:40;17.00;99.90
8408;DHT22;4241;48.452;9.216;2023-09-19T07:30:10;17.00;99.90
8408;DHT22;4241;48.452;9.216;2023-09-19T07:32:37;17.00;99.90
8408;DHT22;4241;48.452;9.216;2023-09-19T07:35:06;17.00;99.90
8408;DHT22;4241;48.452;9.216;2023-09-19T07:37:34;17.00;99.90
8408;DHT22;4241;48.452;9.216;2023-09-19T07:40:02;17.10;99.90
8408;DHT22;4241;48.452;9.216;2023-09-19T07:42:32;17.20;99.90
8408;DHT22;4241;48.452;9.216;2023-09-19T07:45:00;17.20;99.90
8408;DHT22;4241;48.452;9.216;2023-09-19T07:47:29;17.20;99.90
8408;DHT22;4241;48.452;9.216;2023-09-19T07:49:57;17.30;99.90
8408;DHT22;4241;48.452;9.216;2023-09-19T07:52:26;17.30;99.90
8408;DHT22;4241;48.452;9.216;2023-09-19T07:54:53;17.50;99.90
8408;DHT22;4241;48.452;9.216;2023-09-19T07:57:20;17.60;99.90
8408;DHT22;4241;48.452;9.216;2023-09-19T07:59:47;17.60;99.90
8408;DHT22;4241;48.452;9.216;2023-09-19T08:02:14;17.70;99.90
8408;DHT22;4241;48.452;9.216;2023-09-19T08:04:44;17.80;99.90
8408;DHT22;4241;48.452;9.216;2023-09-19T08:07:11;17.90;99.90
8408;DHT22;4241;48.452;9.216;2023-09-19T08:09:39;18.00;99.90
8408;DHT22;4241;48.452;9.216;2023-09-19T08:12:06;18.10;99.90
8408;DHT22;4241;48.452;9.216;2023-09-19T08:14:36;18.30;99.90
8408;DHT22;4241;48.452;9.216;2023-09-19T08:17:03;18.30;99.90
8408;DHT22;4241;48.452;9.216;2023-09-19T08:19:31;18.30;99.90
8408;DHT22;4241;48.452;9.216;2023-09-19T08:21:59;18.20;99.90
8408;DHT22;4241;48.452;9.216;2023-09-19T08:24:27;18.30;99.90
8408;DHT22;4241;48.452;9.216;2023-09-19T08:26:54;18.20;99.90
8408;DHT22;4241;48.452;9.216;2023-09-19T08:29:21;18.20;99.90
8408;DHT22;4241;48.452;9.216;2023-09-19T08:31:53;18.20;99.90
8408;DHT22;4241;48.452;9.216;2023-09-19T08:34:20;18.10;99.90
8408;DHT22;4241;48.452;9.216;2023-09-19T08:36:47;18.20;99.90
8408;DHT22;4241;48.452;9.216;2023-09-19T08:39:15;18.20;99.90
8408;DHT22;4241;48.452;9.216;2023-09-19T08:41:44;18.20;99.90
8408;DHT22;4241;48.452;9.216;2023-09-19T08:44:10;18.30;99.90
8408;DHT22;4241;48.452;9.216;2023-09-19T08:46:39;18.30;99.90
8408;DHT22;4241;48.452;9.216;2023-09-19T08:49:11;18.30;99.90
8408;DHT22;4241;48.452;9.216;2023-09-19T08:51:42;18.40;99.90
8408;DHT22;4241;48.452;9.216;2023-09-19T08:54:20;18.50;99.90
8408;DHT22;4241;48.452;9.216;2023-09-19T08:56:50;18.40;99.90
8408;DHT22;4241;48.452;9.216;2023-09-19T08:59:22;18.40;99.90
8408;DHT22;4241;48.452;9.216;2023-09-19T09:01:51;18.50;99.90
8408;DHT22;4241;48.452;9.216;2023-09-19T09:04:19;18.70;99.90
8408;DHT22;4241;48.452;9.216;2023-09-19T09:06:47;18.70;99.90
8408;DHT22;4241;48.452;9.216;2023-09-19T09:09:20;18.80;99.90
8408;DHT22;4241;48.452;9.216;2023-09-19T09:11:48;19.00;99.90
8408;DHT22;4241;48.452;9.216;2023-09-19T09:14:17;18.90;99.90
8408;DHT22;4241;48.452;9.216;2023-09-19T09:16:45;19.00;99.90
8408;DHT22;4241;48.452;9.216;2023-09-19T09:19:13;19.20;99.90
8408;DHT22;4241;48.452;9.216;2023-09-19T09:21:40;19.30;99.90
8408;DHT22;4241;48.452;9.216;2023-09-19T09:24:51;19.20;99.90
8408;DHT22;4241;48.452;9.216;2023-09-19T09:27:19;19.20;99.90
8408;DHT22;4241;48.452;9.216;2023-09-19T09:29:51;19.60;99.90
8408;DHT22;4241;48.452;9.216;2023-09-19T09:32:21;19.60;99.90
8408;DHT22;4241;48.452;9.216;2023-09-19T09:34:50;19.60;99.90
8408;DHT22;4241;48.452;9.216;2023-09-19T09:37:18;19.70;99.90
8408;DHT22;4241;48.452;9.216;2023-09-19T09:39:51;20.00;99.90
8408;DHT22;4241;48.452;9.216;2023-09-19T09:42:30;19.90;99.90
8408;DHT22;4241;48.452;9.216;2023-09-19T09:45:25;20.00;99.90
8408;DHT22;4241;48.452;9.216;2023-09-19T09:48:03;20.10;99.90
8408;DHT22;4241;48.452;9.216;2023-09-19T09:50:33;20.30;99.90
8408;DHT22;4241;48.452;9.216;2023-09-19T09:53:23;20.30;99.90
8408;DHT22;4241;48.452;9.216;2023-09-19T09:56:05;20.30;99.90
8408;DHT22;4241;48.452;9.216;2023-09-19T09:58:33;20.40;99.90
8408;DHT22;4241;48.452;9.216;2023-09-19T10:01:00;20.40;99.90
8408;DHT22;4241;48.452;9.216;2023-09-19T10:03:35;20.70;99.90
8408;DHT22;4241;48.452;9.216;2023-09-19T10:06:08;20.70;99.90
8408;DHT22;4241;48.452;9.216;2023-09-19T10:09:04;20.40;99.90
8408;DHT22;4241;48.452;9.216;2023-09-19T10:11:41;20.40;99.90
8408;DHT22;4241;48.452;9.216;2023-09-19T10:14:11;20.30;99.90
8408;DHT22;4241;48.452;9.216;2023-09-19T10:16:41;20.40;99.90
8408;DHT22;4241;48.452;9.216;2023-09-19T10:19:17;20.30;99.90
8408;DHT22;4241;48.452;9.216;2023-09-19T10:24:16;20.30;99.90
8408;DHT22;4241;48.452;9.216;2023-09-19T10:26:45;20.40;99.90
8408;DHT22;4241;48.452;9.216;2023-09-19T10:29:13;17.60;99.90
8408;DHT22;4241;48.452;9.216;2023-09-19T10:31:42;20.10;99.90
8408;DHT22;4241;48.452;9.216;2023-09-19T10:34:14;20.10;99.90
8408;DHT22;4241;48.452;9.216;2023-09-19T10:36:45;20.20;99.90
8408;DHT22;4241;48.452;9.216;2023-09-19T10:39:15;20.20;99.90
8408;DHT22;4241;48.452;9.216;2023-09-19T10:41:50;20.20;99.90
8408;DHT22;4241;48.452;9.216;2023-09-19T10:44:21;20.10;99.90
8408;DHT22;4241;48.452;9.216;2023-09-19T10:46:51;20.00;99.90
8408;DHT22;4241;48.452;9.216;2023-09-19T10:49:19;19.90;99.90
8408;DHT22;4241;48.452;9.216;2023-09-19T10:51:47;19.90;99.90
8408;DHT22;4241;48.452;9.216;2023-09-19T10:54:18;20.00;99.90
8408;DHT22;4241;48.452;9.216;2023-09-19T10:56:49;20.10;99.90
8408;DHT22;4241;48.452;9.216;2023-09-19T10:59:18;20.50;99.90
8408;DHT22;4241;48.452;9.216;2023-09-19T11:01:47;20.70;99.90
8408;DHT22;4241;48.452;9.216;2023-09-19T11:04:24;21.00;99.90
8408;DHT22;4241;48.452;9.216;2023-09-19T11:07:04;21.00;99.90
8408;DHT22;4241;48.452;9.216;2023-09-19T11:09:44;21.20;99.90
8408;DHT22;4241;48.452;9.216;2023-09-19T11:18:52;21.60;99.90
8408;DHT22;4241;48.452;9.216;2023-09-19T11:21:52;21.70;99.90
8408;DHT22;4241;48.452;9.216;2023-09-19T11:24:30;21.80;99.90
8408;DHT22;4241;48.452;9.216;2023-09-19T11:27:16;21.70;99.90
8408;DHT22;4241;48.452;9.216;2023-09-19T11:29:44;21.60;99.90
8408;DHT22;4241;48.452;9.216;2023-09-19T11:32:11;21.60;99.90
8408;DHT22;4241;48.452;9.216;2023-09-19T11:40:45;22.00;99.90
8408;DHT22;4241;48.452;9.216;2023-09-19T11:43:34;22.00;99.90
8408;DHT22;4241;48.452;9.216;2023-09-19T11:46:07;22.10;99.90
8408;DHT22;4241;48.452;9.216;2023-09-19T11:48:41;22.40;99.90
8408;DHT22;4241;48.452;9.216;2023-09-19T11:51:14;22.60;99.90
8408;DHT22;4241;48.452;9.216;2023-09-19T11:53:53;22.40;99.90
8408;DHT22;4241;48.452;9.216;2023-09-19T11:56:22;22.40;99.90
8408;DHT22;4241;48.452;9.216;2023-09-19T11:58:52;22.40;99.90
8408;DHT22;4241;48.452;9.216;2023-09-19T12:01:25;22.60;99.90
8408;DHT22;4241;48.452;9.216;2023-09-19T12:03:55;22.70;99.90
8408;DHT22;4241;48.452;9.216;2023-09-19T12:06:24;22.70;99.90
8408;DHT22;4241;48.452;9.216;2023-09-19T12:08:51;22.50;99.90
8408;DHT22;4241;48.452;9.216;2023-09-19T12:11:20;22.40;99.90
8408;DHT22;4241;48.452;9.216;2023-09-19T12:13:49;22.40;99.90
8408;DHT22;4241;48.452;9.216;2023-09-19T12:16:19;22.40;99.90
8408;DHT22;4241;48.452;9.216;2023-09-19T12:18:48;22.20;99.90
8408;DHT22;4241;48.452;9.216;2023-09-19T12:21:26;22.30;99.90
8408;DHT22;4241;48.452;9.216;2023-09-19T12:24:06;22.40;99.90
8408;DHT22;4241;48.452;9.216;2023-09-19T12:26:40;22.40;99.90
8408;DHT22;4241;48.452;9.216;2023-09-19T12:29:16;22.40;99.90
8408;DHT22;4241;48.452;9.216;2023-09-19T12:31:54;22.30;99.90
8408;DHT22;4241;48.452;9.216;2023-09-19T12:34:24;22.30;99.90
8408;DHT22;4241;48.452;9.216;2023-09-19T12:37:08;22.30;99.90
8408;DHT22;4241;48.452;9.216;2023-09-19T12:39:39;22.40;99.90
8408;DHT22;4241;48.452;9.216;2023-09-19T12:42:09;22.50;99.90
8408;DHT22;4241;48.452;9.216;2023-09-19T12:44:37;22.50;99.90
8408;DHT22;4241;48.452;9.216;2023-09-19T12:47:14;22.50;99.90
8408;DHT22;4241;48.452;9.216;2023-09-19T12:50:10;22.40;99.90
8408;DHT22;4241;48.452;9.216;2023-09-19T12:52:43;22.40;99.90
8408;DHT22;4241;48.452;9.216;2023-09-19T12:55:23;22.40;99.90
8408;DHT22;4241;48.452;9.216;2023-09-19T12:58:01;22.30;99.90
8408;DHT22;4241;48.452;9.216;2023-09-19T13:00:35;22.40;99.90
8408;DHT22;4241;48.452;9.216;2023-09-19T13:03:14;22.40;99.90
8408;DHT22;4241;48.452;9.216;2023-09-19T13:05:50;22.40;99.90
8408;DHT22;4241;48.452;9.216;2023-09-19T13:08:21;22.40;99.90
8408;DHT22;4241;48.452;9.216;2023-09-19T13:11:02;22.40;99.90
8408;DHT22;4241;48.452;9.216;2023-09-19T13:13:29;22.30;99.90
8408;DHT22;4241;48.452;9.216;2023-09-19T13:15:56;22.30;99.90
8408;DHT22;4241;48.452;9.216;2023-09-19T13:18:25;22.10;99.90
8408;DHT22;4241;48.452;9.216;2023-09-19T13:21:05;22.10;99.90
8408;DHT22;4241;48.452;9.216;2023-09-19T13:23:34;22.10;99.90
8408;DHT22;4241;48.452;9.216;2023-09-19T13:26:02;22.10;99.90
8408;DHT22;4241;48.452;9.216;2023-09-19T13:28:31;22.10;99.90
8408;DHT22;4241;48.452;9.216;2023-09-19T13:30:57;22.30;99.90
8408;DHT22;4241;48.452;9.216;2023-09-19T13:33:26;22.20;99.90
8408;DHT22;4241;48.452;9.216;2023-09-19T13:35:52;22.30;99.90
8408;DHT22;4241;48.452;9.216;2023-09-19T13:38:20;22.20;99.90
8408;DHT22;4241;48.452;9.216;2023-09-19T13:40:48;22.30;99.90
8408;DHT22;4241;48.452;9.216;2023-09-19T13:43:15;22.60;99.90
8408;DHT22;4241;48.452;9.216;2023-09-19T13:45:42;22.50;99.90
8408;DHT22;4241;48.452;9.216;2023-09-19T13:48:08;22.90;99.90
8408;DHT22;4241;48.452;9.216;2023-09-19T13:50:38;22.40;99.90
8408;DHT22;4241;48.452;9.216;2023-09-19T13:53:07;22.40;99.90
8408;DHT22;4241;48.452;9.216;2023-09-19T13:55:34;22.40;99.90
8408;DHT22;4241;48.452;9.216;2023-09-19T13:58:01;22.30;99.90
8408;DHT22;4241;48.452;9.216;2023-09-19T14:00:30;22.40;99.90
8408;DHT22;4241;48.452;9.216;2023-09-19T14:02:59;22.30;99.90
8408;DHT22;4241;48.452;9.216;2023-09-19T14:05:26;22.10;99.90
8408;DHT22;4241;48.452;9.216;2023-09-19T14:07:55;22.10;99.90
8408;DHT22;4241;48.452;9.216;2023-09-19T14:10:23;21.90;99.90
8408;DHT22;4241;48.452;9.216;2023-09-19T14:12:50;21.90;99.90
8408;DHT22;4241;48.452;9.216;2023-09-19T14:15:17;21.90;99.90
8408;DHT22;4241;48.452;9.216;2023-09-19T14:17:44;21.80;99.90
8408;DHT22;4241;48.452;9.216;2023-09-19T14:20:11;21.80;99.90
8408;DHT22;4241;48.452;9.216;2023-09-19T14:22:38;21.90;99.90
8408;DHT22;4241;48.452;9.216;2023-09-19T14:25:07;21.80;99.90
8408;DHT22;4241;48.452;9.216;2023-09-19T14:27:34;21.70;99.90
8408;DHT22;4241;48.452;9.216;2023-09-19T14:30:02;21.70;99.90
8408;DHT22;4241;48.452;9.216;2023-09-19T14:32:29;21.70;99.90
8408;DHT22;4241;48.452;9.216;2023-09-19T14:34:56;21.70;99.90
8408;DHT22;4241;48.452;9.216;2023-09-19T14:37:23;21.70;99.90
8408;DHT22;4241;48.452;9.216;2023-09-19T14:39:50;21.70;99.90
8408;DHT22;4241;48.452;9.216;2023-09-19T14:42:18;21.70;99.90
8408;DHT22;4241;48.452;9.216;2023-09-19T14:44:45;21.60;99.90
8408;DHT22;4241;48.452;9.216;2023-09-19T14:47:13;21.60;99.90
8408;DHT22;4241;48.452;9.216;2023-09-19T14:49:39;21.70;99.90
8408;DHT22;4241;48.452;9.216;2023-09-19T14:52:07;21.70;99.90
8408;DHT22;4241;48.452;9.216;2023-09-19T14:54:34;21.70;99.90
8408;DHT22;4241;48.452;9.216;2023-09-19T14:57:03;21.60;99.90
8408;DHT22;4241;48.452;9.216;2023-09-19T14:59:32;21.60;99.90
8408;DHT22;4241;48.452;9.216;2023-09-19T15:02:00;21.70;99.90
8408;DHT22;4241;48.452;9.216;2023-09-19T15:04:27;21.70;99.90
8408;DHT22;4241;48.452;9.216;2023-09-19T15:06:54;21.70;99.90
8408;DHT22;4241;48.452;9.216;2023-09-19T15:09:21;21.70;99.90
8408;DHT22;4241;48.452;9.216;2023-09-19T15:11:49;21.80;99.90
8408;DHT22;4241;48.452;9.216;2023-09-19T15:14:16;21.80;99.90
8408;DHT22;4241;48.452;9.216;2023-09-19T15:16:45;21.80;99.90
8408;DHT22;4241;48.452;9.216;2023-09-19T15:19:12;21.80;99.90
8408;DHT22;4241;48.452;9.216;2023-09-19T15:21:39;21.80;99.90
8408;DHT22;4241;48.452;9.216;2023-09-19T15:24:06;21.90;99.90
8408;DHT22;4241;48.452;9.216;2023-09-19T15:26:35;21.90;99.90
8408;DHT22;4241;48.452;9.216;2023-09-19T15:29:04;21.90;99.90
8408;DHT22;4241;48.452;9.216;2023-09-19T15:31:31;21.90;99.90
8408;DHT22;4241;48.452;9.216;2023-09-19T15:34:00;21.90;99.90
8408;DHT22;4241;48.452;9.216;2023-09-19T15:36:27;21.80;99.90
8408;DHT22;4241;48.452;9.216;2023-09-19T15:38:58;21.80;99.90
8408;DHT22;4241;48.452;9.216;2023-09-19T15:41:27;21.90;99.90
8408;DHT22;4241;48.452;9.216;2023-09-19T15:43:56;21.90;99.90
8408;DHT22;4241;48.452;9.216;2023-09-19T15:46:23;21.80;99.90
8408;DHT22;4241;48.452;9.216;2023-09-19T15:48:52;21.80;99.90
8408;DHT22;4241;48.452;9.216;2023-09-19T15:51:20;21.80;99.90
8408;DHT22;4241;48.452;9.216;2023-09-19T15:53:49;21.70;99.90
8408;DHT22;4241;48.452;9.216;2023-09-19T15:56:16;21.70;99.90
8408;DHT22;4241;48.452;9.216;2023-09-19T15:58:45;21.70;99.90
8408;DHT22;4241;48.452;9.216;2023-09-19T16:01:12;21.70;99.90
8408;DHT22;4241;48.452;9.216;2023-09-19T16:03:42;21.70;99.90
8408;DHT22;4241;48.452;9.216;2023-09-19T16:06:10;21.70;99.90
8408;DHT22;4241;48.452;9.216;2023-09-19T16:08:40;21.60;99.90
8408;DHT22;4241;48.452;9.216;2023-09-19T16:11:07;21.60;99.90
8408;DHT22;4241;48.452;9.216;2023-09-19T16:13:34;21.50;99.90
8408;DHT22;4241;48.452;9.216;2023-09-19T16:16:01;21.50;99.90
8408;DHT22;4241;48.452;9.216;2023-09-19T16:18:29;21.50;99.90
8408;DHT22;4241;48.452;9.216;2023-09-19T16:21:01;21.40;99.90
8408;DHT22;4241;48.452;9.216;2023-09-19T16:23:28;21.30;99.90
8408;DHT22;4241;48.452;9.216;2023-09-19T16:26:03;21.30;99.90
8408;DHT22;4241;48.452;9.216;2023-09-19T16:28:31;21.20;99.90
8408;DHT22;4241;48.452;9.216;2023-09-19T16:30:59;21.20;99.90
8408;DHT22;4241;48.452;9.216;2023-09-19T16:33:27;21.30;99.90
8408;DHT22;4241;48.452;9.216;2023-09-19T16:35:54;21.30;99.90
8408;DHT22;4241;48.452;9.216;2023-09-19T16:38:22;21.30;99.90